sensor_id;sensor_type;location;lat;lon;timestamp;P1;durP1;ratioP1;P2;durP2;ratioP2
16669;SDS011;8448;52.034;5.158;2023-11-22T00:00:07;18.43;;;11.73;;
16669;SDS011;8448;52.034;5.158;2023-11-22T00:02:36;19.97;;;12.40;;
16669;SDS011;8448;52.034;5.158;2023-11-22T00:05:05;20.93;;;12.00;;
16669;SDS011;8448;52.034;5.158;2023-11-22T00:07:34;20.77;;;12.47;;
16669;SDS011;8448;52.034;5.158;2023-11-22T00:10:02;20.30;;;12.37;;
16669;SDS011;8448;52.034;5.158;2023-11-22T00:12:30;20.33;;;12.07;;
16669;SDS011;8448;52.034;5.158;2023-11-22T00:15:01;21.30;;;12.50;;
16669;SDS011;8448;52.034;5.158;2023-11-22T00:17:30;17.33;;;11.20;;
16669;SDS011;8448;52.034;5.158;2023-11-22T00:19:58;18.93;;;11.50;;
16669;SDS011;8448;52.034;5.158;2023-11-22T00:22:31;21.10;;;12.47;;
16669;SDS011;8448;52.034;5.158;2023-11-22T00:24:59;17.77;;;11.03;;
16669;SDS011;8448;52.034;5.158;2023-11-22T00:27:26;20.13;;;11.83;;
16669;SDS011;8448;52.034;5.158;2023-11-22T00:29:55;18.70;;;11.70;;
16669;SDS011;8448;52.034;5.158;2023-11-22T00:32:22;18.07;;;11.43;;
16669;SDS011;8448;52.034;5.158;2023-11-22T00:34:50;18.33;;;11.80;;
16669;SDS011;8448;52.034;5.158;2023-11-22T00:37:18;18.30;;;11.40;;
16669;SDS011;8448;52.034;5.158;2023-11-22T00:39:47;20.63;;;11.73;;
16669;SDS011;8448;52.034;5.158;2023-11-22T00:42:14;21.10;;;11.87;;
16669;SDS011;8448;52.034;5.158;2023-11-22T00:44:45;18.00;;;11.07;;
16669;SDS011;8448;52.034;5.158;2023-11-22T00:47:12;18.03;;;11.23;;
16669;SDS011;8448;52.034;5.158;2023-11-22T00:49:41;18.20;;;11.27;;
16669;SDS011;8448;52.034;5.158;2023-11-22T00:52:09;18.27;;;11.13;;
16669;SDS011;8448;52.034;5.158;2023-11-22T00:54:36;17.40;;;10.93;;
16669;SDS011;8448;52.034;5.158;2023-11-22T00:57:05;20.13;;;12.10;;
16669;SDS011;8448;52.034;5.158;2023-11-22T00:59:33;20.93;;;12.13;;
16669;SDS011;8448;52.034;5.158;2023-11-22T01:02:00;18.33;;;11.77;;
16669;SDS011;8448;52.034;5.158;2023-11-22T01:04:28;19.47;;;11.97;;
16669;SDS011;8448;52.034;5.158;2023-11-22T01:07:00;20.53;;;12.33;;
16669;SDS011;8448;52.034;5.158;2023-11-22T01:09:27;20.00;;;12.07;;
16669;SDS011;8448;52.034;5.158;2023-11-22T01:11:57;20.10;;;11.60;;
16669;SDS011;8448;52.034;5.158;2023-11-22T01:14:25;18.77;;;11.63;;
16669;SDS011;8448;52.034;5.158;2023-11-22T01:16:53;17.23;;;11.50;;
16669;SDS011;8448;52.034;5.158;2023-11-22T01:19:21;18.60;;;11.23;;
16669;SDS011;8448;52.034;5.158;2023-11-22T01:21:48;18.30;;;11.53;;
16669;SDS011;8448;52.034;5.158;2023-11-22T01:24:16;19.53;;;11.77;;
16669;SDS011;8448;52.034;5.158;2023-11-22T01:26:43;21.00;;;12.13;;
16669;SDS011;8448;52.034;5.158;2023-11-22T01:29:10;19.87;;;12.17;;
16669;SDS011;8448;52.034;5.158;2023-11-22T01:31:39;17.83;;;11.00;;
16669;SDS011;8448;52.034;5.158;2023-11-22T01:34:08;20.10;;;11.83;;
16669;SDS011;8448;52.034;5.158;2023-11-22T01:36:37;20.30;;;11.50;;
16669;SDS011;8448;52.034;5.158;2023-11-22T01:39:06;17.50;;;11.27;;
16669;SDS011;8448;52.034;5.158;2023-11-22T01:41:34;19.47;;;11.83;;
16669;SDS011;8448;52.034;5.158;2023-11-22T01:44:01;19.40;;;11.53;;
16669;SDS011;8448;52.034;5.158;2023-11-22T01:46:28;18.90;;;11.03;;
16669;SDS011;8448;52.034;5.158;2023-11-22T01:48:57;20.20;;;11.57;;
16669;SDS011;8448;52.034;5.158;2023-11-22T01:51:25;18.43;;;10.83;;
16669;SDS011;8448;52.034;5.158;2023-11-22T01:53:53;19.07;;;11.37;;
16669;SDS011;8448;52.034;5.158;2023-11-22T01:56:21;18.10;;;11.13;;
16669;SDS011;8448;52.034;5.158;2023-11-22T01:58:49;17.80;;;11.47;;
16669;SDS011;8448;52.034;5.158;2023-11-22T02:01:20;19.00;;;11.60;;
16669;SDS011;8448;52.034;5.158;2023-11-22T02:03:47;20.53;;;11.83;;
16669;SDS011;8448;52.034;5.158;2023-11-22T02:06:18;18.20;;;11.60;;
16669;SDS011;8448;52.034;5.158;2023-11-22T02:08:46;17.77;;;10.87;;
16669;SDS011;8448;52.034;5.158;2023-11-22T02:11:16;20.10;;;11.73;;
16669;SDS011;8448;52.034;5.158;2023-11-22T02:13:47;18.10;;;11.13;;
16669;SDS011;8448;52.034;5.158;2023-11-22T02:16:14;21.67;;;11.87;;
16669;SDS011;8448;52.034;5.158;2023-11-22T02:18:43;21.60;;;12.37;;
16669;SDS011;8448;52.034;5.158;2023-11-22T02:21:11;22.13;;;12.73;;
16669;SDS011;8448;52.034;5.158;2023-11-22T02:23:41;20.70;;;11.77;;
16669;SDS011;8448;52.034;5.158;2023-11-22T02:26:08;21.07;;;12.00;;
16669;SDS011;8448;52.034;5.158;2023-11-22T02:28:36;21.17;;;12.27;;
16669;SDS011;8448;52.034;5.158;2023-11-22T02:31:03;19.80;;;12.03;;
16669;SDS011;8448;52.034;5.158;2023-11-22T02:33:31;17.33;;;11.53;;
16669;SDS011;8448;52.034;5.158;2023-11-22T02:35:58;23.17;;;12.40;;
16669;SDS011;8448;52.034;5.158;2023-11-22T02:38:28;21.83;;;12.70;;
16669;SDS011;8448;52.034;5.158;2023-11-22T02:40:56;22.43;;;12.13;;
16669;SDS011;8448;52.034;5.158;2023-11-22T02:43:24;25.80;;;12.80;;
16669;SDS011;8448;52.034;5.158;2023-11-22T02:45:51;20.83;;;12.50;;
16669;SDS011;8448;52.034;5.158;2023-11-22T02:48:18;22.53;;;13.13;;
16669;SDS011;8448;52.034;5.158;2023-11-22T02:50:46;23.40;;;12.80;;
16669;SDS011;8448;52.034;5.158;2023-11-22T02:53:14;23.67;;;12.87;;
16669;SDS011;8448;52.034;5.158;2023-11-22T02:55:42;20.90;;;12.57;;
16669;SDS011;8448;52.034;5.158;2023-11-22T02:58:11;21.73;;;12.23;;
16669;SDS011;8448;52.034;5.158;2023-11-22T03:00:39;22.23;;;12.63;;
16669;SDS011;8448;52.034;5.158;2023-11-22T03:03:07;19.90;;;12.20;;
16669;SDS011;8448;52.034;5.158;2023-11-22T03:05:36;21.93;;;12.70;;
16669;SDS011;8448;52.034;5.158;2023-11-22T03:08:05;21.13;;;12.63;;
16669;SDS011;8448;52.034;5.158;2023-11-22T03:10:32;21.13;;;12.03;;
16669;SDS011;8448;52.034;5.158;2023-11-22T03:13:00;20.90;;;12.10;;
16669;SDS011;8448;52.034;5.158;2023-11-22T03:15:30;22.57;;;13.10;;
16669;SDS011;8448;52.034;5.158;2023-11-22T03:17:58;20.67;;;12.30;;
16669;SDS011;8448;52.034;5.158;2023-11-22T03:20:26;20.80;;;12.13;;
16669;SDS011;8448;52.034;5.158;2023-11-22T03:22:56;23.47;;;12.73;;
16669;SDS011;8448;52.034;5.158;2023-11-22T03:25:23;23.00;;;13.00;;
16669;SDS011;8448;52.034;5.158;2023-11-22T03:27:51;22.73;;;12.80;;
16669;SDS011;8448;52.034;5.158;2023-11-22T03:30:18;20.90;;;12.63;;
16669;SDS011;8448;52.034;5.158;2023-11-22T03:32:49;20.10;;;11.37;;
16669;SDS011;8448;52.034;5.158;2023-11-22T03:35:17;22.33;;;12.70;;
16669;SDS011;8448;52.034;5.158;2023-11-22T03:37:44;20.93;;;12.13;;
16669;SDS011;8448;52.034;5.158;2023-11-22T03:40:13;22.47;;;12.20;;
16669;SDS011;8448;52.034;5.158;2023-11-22T03:42:40;21.23;;;12.60;;
16669;SDS011;8448;52.034;5.158;2023-11-22T03:45:08;19.57;;;11.43;;
16669;SDS011;8448;52.034;5.158;2023-11-22T03:47:37;22.17;;;12.37;;
16669;SDS011;8448;52.034;5.158;2023-11-22T03:50:06;22.10;;;12.20;;
16669;SDS011;8448;52.034;5.158;2023-11-22T03:52:35;21.80;;;12.60;;
16669;SDS011;8448;52.034;5.158;2023-11-22T03:55:02;22.43;;;12.57;;
16669;SDS011;8448;52.034;5.158;2023-11-22T03:57:30;20.90;;;12.57;;
16669;SDS011;8448;52.034;5.158;2023-11-22T03:59:57;21.53;;;12.50;;
16669;SDS011;8448;52.034;5.158;2023-11-22T04:02:25;21.37;;;12.20;;
16669;SDS011;8448;52.034;5.158;2023-11-22T04:04:54;25.13;;;16.45;;
16669;SDS011;8448;52.034;5.158;2023-11-22T04:07:23;24.27;;;13.63;;
16669;SDS011;8448;52.034;5.158;2023-11-22T04:09:51;25.03;;;13.70;;
16669;SDS011;8448;52.034;5.158;2023-11-22T04:12:18;20.57;;;12.40;;
16669;SDS011;8448;52.034;5.158;2023-11-22T04:14:46;24.83;;;12.80;;
16669;SDS011;8448;52.034;5.158;2023-11-22T04:17:14;21.87;;;12.33;;
16669;SDS011;8448;52.034;5.158;2023-11-22T04:19:41;23.13;;;12.97;;
16669;SDS011;8448;52.034;5.158;2023-11-22T04:22:08;21.77;;;12.93;;
16669;SDS011;8448;52.034;5.158;2023-11-22T04:24:37;20.87;;;12.17;;
16669;SDS011;8448;52.034;5.158;2023-11-22T04:27:05;22.80;;;13.07;;
16669;SDS011;8448;52.034;5.158;2023-11-22T04:29:32;22.77;;;13.57;;
16669;SDS011;8448;52.034;5.158;2023-11-22T04:31:59;25.47;;;13.63;;
16669;SDS011;8448;52.034;5.158;2023-11-22T04:34:27;26.10;;;13.57;;
16669;SDS011;8448;52.034;5.158;2023-11-22T04:36:55;24.83;;;12.90;;
16669;SDS011;8448;52.034;5.158;2023-11-22T04:39:22;25.50;;;14.50;;
16669;SDS011;8448;52.034;5.158;2023-11-22T04:41:51;27.20;;;13.80;;
16669;SDS011;8448;52.034;5.158;2023-11-22T04:44:18;23.27;;;13.70;;
16669;SDS011;8448;52.034;5.158;2023-11-22T04:46:46;22.70;;;13.33;;
16669;SDS011;8448;52.034;5.158;2023-11-22T04:49:13;22.40;;;12.97;;
16669;SDS011;8448;52.034;5.158;2023-11-22T04:51:40;25.90;;;13.97;;
16669;SDS011;8448;52.034;5.158;2023-11-22T04:54:08;23.60;;;13.60;;
16669;SDS011;8448;52.034;5.158;2023-11-22T04:56:35;25.50;;;13.90;;
16669;SDS011;8448;52.034;5.158;2023-11-22T04:59:04;26.03;;;13.57;;
16669;SDS011;8448;52.034;5.158;2023-11-22T05:01:32;23.77;;;13.37;;
16669;SDS011;8448;52.034;5.158;2023-11-22T05:03:59;26.20;;;13.70;;
16669;SDS011;8448;52.034;5.158;2023-11-22T05:06:27;27.30;;;14.73;;
16669;SDS011;8448;52.034;5.158;2023-11-22T05:08:55;24.77;;;14.60;;
16669;SDS011;8448;52.034;5.158;2023-11-22T05:11:22;25.20;;;13.50;;
16669;SDS011;8448;52.034;5.158;2023-11-22T05:13:49;24.17;;;13.37;;
16669;SDS011;8448;52.034;5.158;2023-11-22T05:16:18;25.93;;;14.20;;
16669;SDS011;8448;52.034;5.158;2023-11-22T05:18:45;27.07;;;14.00;;
16669;SDS011;8448;52.034;5.158;2023-11-22T05:21:13;26.00;;;14.67;;
16669;SDS011;8448;52.034;5.158;2023-11-22T05:23:40;26.37;;;14.77;;
16669;SDS011;8448;52.034;5.158;2023-11-22T05:26:07;25.40;;;14.47;;
16669;SDS011;8448;52.034;5.158;2023-11-22T05:28:34;25.40;;;14.10;;
16669;SDS011;8448;52.034;5.158;2023-11-22T05:31:02;27.27;;;15.50;;
16669;SDS011;8448;52.034;5.158;2023-11-22T05:33:31;26.30;;;14.70;;
16669;SDS011;8448;52.034;5.158;2023-11-22T05:35:59;25.10;;;14.27;;
16669;SDS011;8448;52.034;5.158;2023-11-22T05:38:26;27.13;;;14.43;;
16669;SDS011;8448;52.034;5.158;2023-11-22T05:40:53;24.90;;;14.40;;
16669;SDS011;8448;52.034;5.158;2023-11-22T05:43:21;29.35;;;16.27;;
16669;SDS011;8448;52.034;5.158;2023-11-22T05:45:51;27.80;;;15.03;;
16669;SDS011;8448;52.034;5.158;2023-11-22T05:48:19;28.13;;;15.20;;
16669;SDS011;8448;52.034;5.158;2023-11-22T05:50:48;25.43;;;14.63;;
16669;SDS011;8448;52.034;5.158;2023-11-22T05:53:15;29.80;;;15.03;;
16669;SDS011;8448;52.034;5.158;2023-11-22T05:55:44;25.83;;;14.30;;
16669;SDS011;8448;52.034;5.158;2023-11-22T05:58:12;27.53;;;15.27;;
16669;SDS011;8448;52.034;5.158;2023-11-22T06:00:41;25.30;;;14.43;;
16669;SDS011;8448;52.034;5.158;2023-11-22T06:03:09;27.90;;;15.10;;
16669;SDS011;8448;52.034;5.158;2023-11-22T06:05:37;29.90;;;18.80;;
16669;SDS011;8448;52.034;5.158;2023-11-22T06:08:05;26.33;;;15.77;;
16669;SDS011;8448;52.034;5.158;2023-11-22T06:10:34;29.23;;;15.40;;
16669;SDS011;8448;52.034;5.158;2023-11-22T06:13:03;25.57;;;14.53;;
16669;SDS011;8448;52.034;5.158;2023-11-22T06:15:30;29.97;;;15.23;;
16669;SDS011;8448;52.034;5.158;2023-11-22T06:17:58;25.23;;;14.37;;
16669;SDS011;8448;52.034;5.158;2023-11-22T06:20:25;27.63;;;14.80;;
16669;SDS011;8448;52.034;5.158;2023-11-22T06:22:53;27.90;;;14.80;;
16669;SDS011;8448;52.034;5.158;2023-11-22T06:25:22;26.63;;;14.33;;
16669;SDS011;8448;52.034;5.158;2023-11-22T06:27:49;28.03;;;14.10;;
16669;SDS011;8448;52.034;5.158;2023-11-22T06:30:16;24.03;;;13.80;;
16669;SDS011;8448;52.034;5.158;2023-11-22T06:32:44;26.20;;;14.30;;
16669;SDS011;8448;52.034;5.158;2023-11-22T06:35:11;30.40;;;15.80;;
16669;SDS011;8448;52.034;5.158;2023-11-22T06:37:40;31.30;;;15.60;;
16669;SDS011;8448;52.034;5.158;2023-11-22T06:40:08;25.77;;;15.10;;
16669;SDS011;8448;52.034;5.158;2023-11-22T06:42:38;27.37;;;14.90;;
16669;SDS011;8448;52.034;5.158;2023-11-22T06:45:06;28.73;;;14.23;;
16669;SDS011;8448;52.034;5.158;2023-11-22T06:47:37;26.60;;;14.37;;
16669;SDS011;8448;52.034;5.158;2023-11-22T06:50:05;24.43;;;14.30;;
16669;SDS011;8448;52.034;5.158;2023-11-22T06:52:35;22.83;;;13.80;;
16669;SDS011;8448;52.034;5.158;2023-11-22T06:55:03;26.37;;;14.20;;
16669;SDS011;8448;52.034;5.158;2023-11-22T06:57:33;28.20;;;15.43;;
16669;SDS011;8448;52.034;5.158;2023-11-22T07:00:02;28.80;;;15.60;;
16669;SDS011;8448;52.034;5.158;2023-11-22T07:02:30;27.63;;;14.40;;
16669;SDS011;8448;52.034;5.158;2023-11-22T07:04:58;28.57;;;15.90;;
16669;SDS011;8448;52.034;5.158;2023-11-22T07:07:25;26.83;;;14.83;;
16669;SDS011;8448;52.034;5.158;2023-11-22T07:09:52;28.03;;;15.13;;
16669;SDS011;8448;52.034;5.158;2023-11-22T07:12:21;27.70;;;15.33;;
16669;SDS011;8448;52.034;5.158;2023-11-22T07:14:49;31.57;;;14.80;;
16669;SDS011;8448;52.034;5.158;2023-11-22T07:17:17;31.80;;;15.23;;
16669;SDS011;8448;52.034;5.158;2023-11-22T07:19:46;27.67;;;15.60;;
16669;SDS011;8448;52.034;5.158;2023-11-22T07:22:14;28.80;;;15.07;;
16669;SDS011;8448;52.034;5.158;2023-11-22T07:24:42;27.43;;;14.40;;
16669;SDS011;8448;52.034;5.158;2023-11-22T07:27:10;27.37;;;14.93;;
16669;SDS011;8448;52.034;5.158;2023-11-22T07:29:37;27.30;;;15.27;;
16669;SDS011;8448;52.034;5.158;2023-11-22T07:32:06;29.13;;;15.43;;
16669;SDS011;8448;52.034;5.158;2023-11-22T07:34:35;26.73;;;14.37;;
16669;SDS011;8448;52.034;5.158;2023-11-22T07:37:04;24.30;;;14.23;;
16669;SDS011;8448;52.034;5.158;2023-11-22T07:39:32;26.07;;;15.10;;
16669;SDS011;8448;52.034;5.158;2023-11-22T07:42:00;26.30;;;15.13;;
16669;SDS011;8448;52.034;5.158;2023-11-22T07:44:28;30.00;;;15.37;;
16669;SDS011;8448;52.034;5.158;2023-11-22T07:46:57;26.93;;;14.90;;
16669;SDS011;8448;52.034;5.158;2023-11-22T07:49:25;28.80;;;14.43;;
16669;SDS011;8448;52.034;5.158;2023-11-22T07:51:55;29.67;;;15.50;;
16669;SDS011;8448;52.034;5.158;2023-11-22T07:54:22;30.50;;;15.60;;
16669;SDS011;8448;52.034;5.158;2023-11-22T07:56:50;28.30;;;15.67;;
16669;SDS011;8448;52.034;5.158;2023-11-22T07:59:17;29.20;;;15.00;;
16669;SDS011;8448;52.034;5.158;2023-11-22T08:01:45;27.60;;;15.93;;
16669;SDS011;8448;52.034;5.158;2023-11-22T08:04:14;32.53;;;16.33;;
16669;SDS011;8448;52.034;5.158;2023-11-22T08:06:41;30.57;;;15.83;;
16669;SDS011;8448;52.034;5.158;2023-11-22T08:09:10;27.70;;;15.60;;
16669;SDS011;8448;52.034;5.158;2023-11-22T08:11:38;28.60;;;15.70;;
16669;SDS011;8448;52.034;5.158;2023-11-22T08:14:06;25.27;;;14.33;;
16669;SDS011;8448;52.034;5.158;2023-11-22T08:16:34;26.53;;;15.37;;
16669;SDS011;8448;52.034;5.158;2023-11-22T08:19:03;25.63;;;14.27;;
16669;SDS011;8448;52.034;5.158;2023-11-22T08:21:32;26.73;;;15.47;;
16669;SDS011;8448;52.034;5.158;2023-11-22T08:24:00;29.30;;;16.17;;
16669;SDS011;8448;52.034;5.158;2023-11-22T08:26:29;29.53;;;15.70;;
16669;SDS011;8448;52.034;5.158;2023-11-22T08:28:56;34.50;;;16.90;;
16669;SDS011;8448;52.034;5.158;2023-11-22T08:31:24;30.23;;;16.77;;
16669;SDS011;8448;52.034;5.158;2023-11-22T08:33:51;28.53;;;15.77;;
16669;SDS011;8448;52.034;5.158;2023-11-22T08:36:18;29.67;;;15.63;;
16669;SDS011;8448;52.034;5.158;2023-11-22T08:38:46;28.40;;;15.70;;
16669;SDS011;8448;52.034;5.158;2023-11-22T08:41:13;30.90;;;17.03;;
16669;SDS011;8448;52.034;5.158;2023-11-22T08:43:43;33.00;;;17.07;;
16669;SDS011;8448;52.034;5.158;2023-11-22T08:46:13;30.50;;;17.10;;
16669;SDS011;8448;52.034;5.158;2023-11-22T08:48:40;30.53;;;17.10;;
16669;SDS011;8448;52.034;5.158;2023-11-22T08:51:08;31.53;;;18.40;;
16669;SDS011;8448;52.034;5.158;2023-11-22T08:53:36;29.23;;;17.13;;
16669;SDS011;8448;52.034;5.158;2023-11-22T08:56:04;29.90;;;16.90;;
16669;SDS011;8448;52.034;5.158;2023-11-22T08:58:34;29.87;;;16.27;;
16669;SDS011;8448;52.034;5.158;2023-11-22T09:01:02;28.63;;;16.67;;
16669;SDS011;8448;52.034;5.158;2023-11-22T09:03:30;28.50;;;16.47;;
16669;SDS011;8448;52.034;5.158;2023-11-22T09:05:57;29.30;;;16.53;;
16669;SDS011;8448;52.034;5.158;2023-11-22T09:08:25;28.87;;;16.50;;
16669;SDS011;8448;52.034;5.158;2023-11-22T09:10:53;27.73;;;16.00;;
16669;SDS011;8448;52.034;5.158;2023-11-22T09:13:21;27.57;;;15.73;;
16669;SDS011;8448;52.034;5.158;2023-11-22T09:15:49;28.30;;;15.97;;
16669;SDS011;8448;52.034;5.158;2023-11-22T09:18:18;24.37;;;15.23;;
16669;SDS011;8448;52.034;5.158;2023-11-22T09:20:47;25.00;;;15.30;;
16669;SDS011;8448;52.034;5.158;2023-11-22T09:23:14;25.63;;;15.50;;
16669;SDS011;8448;52.034;5.158;2023-11-22T09:25:42;26.30;;;15.10;;
16669;SDS011;8448;52.034;5.158;2023-11-22T09:28:09;24.20;;;14.90;;
16669;SDS011;8448;52.034;5.158;2023-11-22T09:30:36;22.53;;;13.73;;
16669;SDS011;8448;52.034;5.158;2023-11-22T09:33:06;24.13;;;14.17;;
16669;SDS011;8448;52.034;5.158;2023-11-22T09:35:36;26.27;;;15.07;;
16669;SDS011;8448;52.034;5.158;2023-11-22T09:38:04;22.00;;;13.87;;
16669;SDS011;8448;52.034;5.158;2023-11-22T09:40:35;23.27;;;14.17;;
16669;SDS011;8448;52.034;5.158;2023-11-22T09:43:02;23.83;;;15.03;;
16669;SDS011;8448;52.034;5.158;2023-11-22T09:45:31;25.23;;;14.47;;
16669;SDS011;8448;52.034;5.158;2023-11-22T09:47:59;25.73;;;15.50;;
16669;SDS011;8448;52.034;5.158;2023-11-22T09:50:26;27.27;;;15.40;;
16669;SDS011;8448;52.034;5.158;2023-11-22T09:53:10;26.57;;;15.47;;
16669;SDS011;8448;52.034;5.158;2023-11-22T09:55:41;25.50;;;15.50;;
16669;SDS011;8448;52.034;5.158;2023-11-22T09:58:09;24.27;;;14.73;;
16669;SDS011;8448;52.034;5.158;2023-11-22T10:00:37;22.93;;;14.27;;
16669;SDS011;8448;52.034;5.158;2023-11-22T10:03:06;25.87;;;15.33;;
16669;SDS011;8448;52.034;5.158;2023-11-22T10:05:33;25.80;;;15.33;;
16669;SDS011;8448;52.034;5.158;2023-11-22T10:08:00;24.67;;;15.37;;
16669;SDS011;8448;52.034;5.158;2023-11-22T10:10:30;25.00;;;14.93;;
16669;SDS011;8448;52.034;5.158;2023-11-22T10:12:59;26.47;;;14.80;;
16669;SDS011;8448;52.034;5.158;2023-11-22T10:15:27;24.40;;;15.33;;
16669;SDS011;8448;52.034;5.158;2023-11-22T10:17:56;24.73;;;15.43;;
16669;SDS011;8448;52.034;5.158;2023-11-22T10:20:27;26.60;;;16.00;;
16669;SDS011;8448;52.034;5.158;2023-11-22T10:23:02;24.87;;;15.43;;
16669;SDS011;8448;52.034;5.158;2023-11-22T10:25:32;26.63;;;15.80;;
16669;SDS011;8448;52.034;5.158;2023-11-22T10:27:59;25.10;;;15.30;;
16669;SDS011;8448;52.034;5.158;2023-11-22T10:30:27;23.57;;;14.70;;
16669;SDS011;8448;52.034;5.158;2023-11-22T10:32:55;22.33;;;14.90;;
16669;SDS011;8448;52.034;5.158;2023-11-22T10:35:23;25.17;;;15.13;;
16669;SDS011;8448;52.034;5.158;2023-11-22T10:37:52;25.60;;;16.13;;
16669;SDS011;8448;52.034;5.158;2023-11-22T10:40:19;27.70;;;15.50;;
16669;SDS011;8448;52.034;5.158;2023-11-22T10:42:48;23.43;;;14.43;;
16669;SDS011;8448;52.034;5.158;2023-11-22T10:45:18;23.60;;;15.20;;
16669;SDS011;8448;52.034;5.158;2023-11-22T10:47:46;23.93;;;14.73;;
16669;SDS011;8448;52.034;5.158;2023-11-22T10:50:16;22.70;;;15.33;;
16669;SDS011;8448;52.034;5.158;2023-11-22T10:52:44;25.53;;;15.60;;
16669;SDS011;8448;52.034;5.158;2023-11-22T10:55:17;23.37;;;14.97;;
16669;SDS011;8448;52.034;5.158;2023-11-22T10:57:49;21.03;;;14.50;;
16669;SDS011;8448;52.034;5.158;2023-11-22T11:00:19;24.40;;;14.93;;
16669;SDS011;8448;52.034;5.158;2023-11-22T11:02:50;22.47;;;14.43;;
16669;SDS011;8448;52.034;5.158;2023-11-22T11:05:22;22.37;;;15.37;;
16669;SDS011;8448;52.034;5.158;2023-11-22T11:07:56;23.23;;;14.93;;
16669;SDS011;8448;52.034;5.158;2023-11-22T11:10:27;22.97;;;15.23;;
16669;SDS011;8448;52.034;5.158;2023-11-22T11:12:56;22.33;;;14.30;;
16669;SDS011;8448;52.034;5.158;2023-11-22T11:15:24;21.70;;;14.93;;
16669;SDS011;8448;52.034;5.158;2023-11-22T11:17:52;22.37;;;14.80;;
16669;SDS011;8448;52.034;5.158;2023-11-22T11:20:22;22.60;;;15.17;;
16669;SDS011;8448;52.034;5.158;2023-11-22T11:22:49;22.97;;;15.80;;
16669;SDS011;8448;52.034;5.158;2023-11-22T11:25:18;21.27;;;14.43;;
16669;SDS011;8448;52.034;5.158;2023-11-22T11:27:55;23.63;;;15.23;;
16669;SDS011;8448;52.034;5.158;2023-11-22T11:30:43;21.57;;;14.97;;
16669;SDS011;8448;52.034;5.158;2023-11-22T11:33:11;23.87;;;15.57;;
16669;SDS011;8448;52.034;5.158;2023-11-22T11:35:44;24.13;;;17.00;;
16669;SDS011;8448;52.034;5.158;2023-11-22T11:38:13;25.67;;;16.23;;
16669;SDS011;8448;52.034;5.158;2023-11-22T11:40:41;28.33;;;17.40;;
16669;SDS011;8448;52.034;5.158;2023-11-22T11:43:10;25.70;;;15.83;;
16669;SDS011;8448;52.034;5.158;2023-11-22T11:45:39;23.67;;;15.63;;
16669;SDS011;8448;52.034;5.158;2023-11-22T11:48:11;25.93;;;15.70;;
16669;SDS011;8448;52.034;5.158;2023-11-22T11:50:39;25.13;;;15.70;;
16669;SDS011;8448;52.034;5.158;2023-11-22T11:53:07;24.17;;;15.23;;
16669;SDS011;8448;52.034;5.158;2023-11-22T11:55:35;24.50;;;15.50;;
16669;SDS011;8448;52.034;5.158;2023-11-22T11:58:06;22.40;;;15.03;;
16669;SDS011;8448;52.034;5.158;2023-11-22T12:00:36;20.57;;;13.87;;
16669;SDS011;8448;52.034;5.158;2023-11-22T12:03:05;21.10;;;14.40;;
16669;SDS011;8448;52.034;5.158;2023-11-22T12:05:34;23.80;;;14.97;;
16669;SDS011;8448;52.034;5.158;2023-11-22T12:08:02;22.43;;;14.80;;
16669;SDS011;8448;52.034;5.158;2023-11-22T12:10:30;22.70;;;15.10;;
16669;SDS011;8448;52.034;5.158;2023-11-22T12:12:57;21.23;;;14.47;;
16669;SDS011;8448;52.034;5.158;2023-11-22T12:15:25;21.87;;;14.70;;
16669;SDS011;8448;52.034;5.158;2023-11-22T12:17:55;23.93;;;15.13;;
16669;SDS011;8448;52.034;5.158;2023-11-22T12:20:23;20.83;;;14.83;;
16669;SDS011;8448;52.034;5.158;2023-11-22T12:22:51;20.30;;;14.37;;
16669;SDS011;8448;52.034;5.158;2023-11-22T12:25:19;22.30;;;15.10;;
16669;SDS011;8448;52.034;5.158;2023-11-22T12:27:47;18.97;;;14.10;;
16669;SDS011;8448;52.034;5.158;2023-11-22T12:30:27;20.37;;;14.60;;
16669;SDS011;8448;52.034;5.158;2023-11-22T12:32:58;19.57;;;15.03;;
16669;SDS011;8448;52.034;5.158;2023-11-22T12:35:29;22.70;;;15.47;;
16669;SDS011;8448;52.034;5.158;2023-11-22T12:37:58;20.80;;;14.90;;
16669;SDS011;8448;52.034;5.158;2023-11-22T12:40:27;20.13;;;14.83;;
16669;SDS011;8448;52.034;5.158;2023-11-22T12:42:57;20.33;;;15.43;;
16669;SDS011;8448;52.034;5.158;2023-11-22T12:45:26;22.23;;;16.60;;
16669;SDS011;8448;52.034;5.158;2023-11-22T12:47:54;21.73;;;16.07;;
16669;SDS011;8448;52.034;5.158;2023-11-22T12:50:34;20.83;;;15.10;;
16669;SDS011;8448;52.034;5.158;2023-11-22T12:53:07;21.30;;;15.53;;
16669;SDS011;8448;52.034;5.158;2023-11-22T12:55:37;23.97;;;16.13;;
16669;SDS011;8448;52.034;5.158;2023-11-22T12:58:08;24.03;;;16.93;;
16669;SDS011;8448;52.034;5.158;2023-11-22T13:00:36;25.47;;;17.53;;
16669;SDS011;8448;52.034;5.158;2023-11-22T13:03:04;26.60;;;18.27;;
16669;SDS011;8448;52.034;5.158;2023-11-22T13:05:33;25.77;;;17.83;;
16669;SDS011;8448;52.034;5.158;2023-11-22T13:08:01;24.47;;;16.63;;
16669;SDS011;8448;52.034;5.158;2023-11-22T13:10:29;27.30;;;17.70;;
16669;SDS011;8448;52.034;5.158;2023-11-22T13:12:56;31.80;;;18.30;;
16669;SDS011;8448;52.034;5.158;2023-11-22T13:15:24;26.97;;;17.87;;
16669;SDS011;8448;52.034;5.158;2023-11-22T13:17:52;28.97;;;18.43;;
16669;SDS011;8448;52.034;5.158;2023-11-22T13:20:21;30.30;;;18.80;;
16669;SDS011;8448;52.034;5.158;2023-11-22T13:22:52;32.03;;;18.70;;
16669;SDS011;8448;52.034;5.158;2023-11-22T13:25:20;30.77;;;19.27;;
16669;SDS011;8448;52.034;5.158;2023-11-22T13:27:49;29.37;;;19.33;;
16669;SDS011;8448;52.034;5.158;2023-11-22T13:30:18;33.47;;;20.33;;
16669;SDS011;8448;52.034;5.158;2023-11-22T13:32:47;33.00;;;19.33;;
16669;SDS011;8448;52.034;5.158;2023-11-22T13:35:15;37.07;;;20.80;;
16669;SDS011;8448;52.034;5.158;2023-11-22T13:37:43;31.23;;;18.83;;
16669;SDS011;8448;52.034;5.158;2023-11-22T13:40:13;32.97;;;19.97;;
16669;SDS011;8448;52.034;5.158;2023-11-22T13:42:42;32.60;;;19.20;;
16669;SDS011;8448;52.034;5.158;2023-11-22T13:45:10;31.20;;;18.67;;
16669;SDS011;8448;52.034;5.158;2023-11-22T13:47:42;31.13;;;19.03;;
16669;SDS011;8448;52.034;5.158;2023-11-22T13:50:12;28.50;;;17.90;;
16669;SDS011;8448;52.034;5.158;2023-11-22T13:52:43;27.93;;;17.30;;
16669;SDS011;8448;52.034;5.158;2023-11-22T13:55:13;29.63;;;16.93;;
16669;SDS011;8448;52.034;5.158;2023-11-22T13:57:43;26.87;;;16.57;;
16669;SDS011;8448;52.034;5.158;2023-11-22T14:00:10;29.57;;;17.07;;
16669;SDS011;8448;52.034;5.158;2023-11-22T14:02:43;26.33;;;15.90;;
16669;SDS011;8448;52.034;5.158;2023-11-22T14:05:11;23.30;;;14.83;;
16669;SDS011;8448;52.034;5.158;2023-11-22T14:07:38;23.37;;;14.67;;
16669;SDS011;8448;52.034;5.158;2023-11-22T14:10:06;22.97;;;13.83;;
16669;SDS011;8448;52.034;5.158;2023-11-22T14:12:37;21.43;;;14.50;;
16669;SDS011;8448;52.034;5.158;2023-11-22T14:15:05;23.13;;;15.07;;
16669;SDS011;8448;52.034;5.158;2023-11-22T14:17:32;21.77;;;14.53;;
16669;SDS011;8448;52.034;5.158;2023-11-22T14:20:00;25.17;;;14.73;;
16669;SDS011;8448;52.034;5.158;2023-11-22T14:22:28;22.53;;;14.40;;
16669;SDS011;8448;52.034;5.158;2023-11-22T14:24:56;23.30;;;14.80;;
16669;SDS011;8448;52.034;5.158;2023-11-22T14:27:25;24.33;;;14.83;;
16669;SDS011;8448;52.034;5.158;2023-11-22T14:29:56;23.97;;;14.87;;
16669;SDS011;8448;52.034;5.158;2023-11-22T14:32:24;23.00;;;14.27;;
16669;SDS011;8448;52.034;5.158;2023-11-22T14:34:52;23.57;;;14.90;;
16669;SDS011;8448;52.034;5.158;2023-11-22T14:37:20;25.27;;;15.40;;
16669;SDS011;8448;52.034;5.158;2023-11-22T14:39:47;25.70;;;15.57;;